Time;durP1;ratioP1;P1;durP2;ratioP2;P2;SDS_P1;SDS_P2;PMS_P1;PMS_P2;Temp;Humidity;BMP_temperature;BMP_pressure;BME280_temperature;BME280_humidity;BME280_pressure;Samples;Min_cycle;Max_cycle;Signal;HPM_P1;HPM_P2
2024/03/22 00:01:09;;;;;;;3.58;3.10;;;19.50;58.50;;;;;;4997910;28;20079;-51
2024/03/22 00:03:34;;;;;;;4.60;2.80;;;19.40;58.50;;;;;;5022376;28;20454;-54
2024/03/22 00:06:00;;;;;;;3.50;3.20;;;19.40;58.50;;;;;;5020737;28;20030;-60
2024/03/22 00:08:25;;;;;;;3.70;3.40;;;19.50;58.60;;;;;;5019426;28;20033;-51
2024/03/22 00:10:51;;;;;;;3.60;2.83;;;19.40;58.50;;;;;;5021889;28;20137;-53
2024/03/22 00:13:16;;;;;;;3.58;2.90;;;19.40;58.50;;;;;;5020403;28;20037;-56
2024/03/22 00:15:44;;;;;;;3.75;3.35;;;19.40;58.50;;;;;;5020662;28;20116;-56
2024/03/22 00:18:10;;;;;;;4.10;3.42;;;19.40;58.50;;;;;;5019410;28;20502;-52
2024/03/22 00:20:35;;;;;;;3.92;3.53;;;19.40;58.50;;;;;;5022107;28;20057;-54
2024/03/22 00:23:01;;;;;;;4.80;3.70;;;19.40;58.50;;;;;;5021703;28;20108;-61
2024/03/22 00:25:26;;;;;;;3.60;3.13;;;19.40;58.50;;;;;;5011419;28;20107;-51
2024/03/22 00:27:52;;;;;;;5.18;3.60;;;19.40;58.50;;;;;;5021756;28;20030;-51
2024/03/22 00:30:17;;;;;;;3.85;3.40;;;19.40;58.50;;;;;;5023317;28;20468;-54
2024/03/22 00:32:45;;;;;;;4.18;3.20;;;19.40;58.50;;;;;;5022128;28;20482;-58
2024/03/22 00:35:11;;;;;;;3.70;3.22;;;19.40;58.50;;;;;;5021438;28;20527;-58
2024/03/22 00:37:36;;;;;;;4.70;3.15;;;19.40;58.50;;;;;;5022080;28;20038;-51
2024/03/22 00:40:02;;;;;;;4.32;3.35;;;19.40;58.50;;;;;;5021307;28;20049;-56
2024/03/22 00:42:28;;;;;;;3.22;2.92;;;19.40;58.50;;;;;;5022627;28;20044;-54
2024/03/22 00:44:54;;;;;;;4.03;3.05;;;19.40;58.50;;;;;;5004128;28;20037;-58
2024/03/22 00:47:20;;;;;;;4.18;3.65;;;19.40;58.50;;;;;;5021053;28;20041;-51
2024/03/22 00:49:46;;;;;;;4.72;3.63;;;19.40;58.50;;;;;;5020125;28;20034;-53
2024/03/22 00:52:11;;;;;;;3.75;2.90;;;19.40;58.50;;;;;;5016819;28;20034;-58
2024/03/22 00:54:39;;;;;;;3.63;3.33;;;19.40;58.50;;;;;;5019849;28;20506;-50
2024/03/22 00:57:04;;;;;;;3.95;3.30;;;19.40;58.50;;;;;;4996425;28;20053;-51
2024/03/22 00:59:30;;;;;;;3.53;3.20;;;19.40;58.50;;;;;;5020100;28;20046;-57
2024/03/22 01:01:55;;;;;;;3.95;3.28;;;19.40;58.50;;;;;;5016330;28;20446;-57
2024/03/22 01:04:21;;;;;;;2.92;2.67;;;19.40;58.50;;;;;;5016299;28;20041;-52
2024/03/22 01:06:46;;;;;;;4.55;3.30;;;19.40;58.50;;;;;;5015437;28;20395;-53
2024/03/22 01:09:12;;;;;;;3.30;3.00;;;19.30;58.50;;;;;;5014111;28;20110;-55
2024/03/22 01:11:37;;;;;;;3.55;3.10;;;19.30;58.50;;;;;;5004224;28;20041;-51
2024/03/22 01:14:03;;;;;;;4.03;3.30;;;19.30;58.50;;;;;;5018153;28;20377;-54
2024/03/22 01:16:28;;;;;;;3.30;3.00;;;19.30;58.60;;;;;;5016573;28;20037;-54
2024/03/22 01:18:54;;;;;;;3.10;2.80;;;19.30;58.50;;;;;;5019863;28;20037;-59
2024/03/22 01:21:24;;;;;;;3.30;2.80;;;19.30;58.60;;;;;;5017450;28;20029;-52
2024/03/22 01:23:51;;;;;;;2.75;2.50;;;19.30;58.70;;;;;;5016575;28;20037;-55
2024/03/22 01:26:16;;;;;;;3.53;3.20;;;19.20;58.60;;;;;;5006762;28;20092;-54
2024/03/22 01:28:42;;;;;;;5.47;3.30;;;19.30;58.70;;;;;;4995902;28;20520;-58
2024/03/22 01:31:07;;;;;;;4.38;3.00;;;19.30;58.60;;;;;;5015843;28;20037;-57
2024/03/22 01:33:32;;;;;;;3.50;2.72;;;19.20;58.60;;;;;;5019303;28;20052;-57
2024/03/22 01:35:58;;;;;;;3.50;2.72;;;19.30;58.60;;;;;;5015871;28;20112;-56
2024/03/22 01:38:23;;;;;;;3.13;2.47;;;19.20;58.60;;;;;;5018548;28;20817;-55
2024/03/22 01:40:49;;;;;;;2.60;2.38;;;19.20;58.60;;;;;;5019162;28;20036;-58
2024/03/22 01:43:14;;;;;;;3.70;2.80;;;19.20;58.70;;;;;;5018780;28;20037;-56
2024/03/22 01:45:40;;;;;;;3.22;2.92;;;19.20;58.70;;;;;;5016203;28;20399;-54
2024/03/22 01:48:07;;;;;;;3.05;2.72;;;19.20;58.70;;;;;;5016110;28;20038;-54
2024/03/22 01:50:33;;;;;;;2.92;2.63;;;19.20;58.70;;;;;;5019629;28;20037;-56
2024/03/22 01:52:58;;;;;;;2.55;2.35;;;19.20;58.70;;;;;;5015398;28;20094;-55
2024/03/22 01:55:24;;;;;;;4.18;2.63;;;19.20;58.60;;;;;;5017176;28;20029;-54
2024/03/22 01:57:52;;;;;;;3.03;2.30;;;19.20;58.60;;;;;;5018626;28;20033;-57
2024/03/22 02:00:19;;;;;;;3.63;2.70;;;19.20;58.60;;;;;;5014976;28;20159;-56
2024/03/22 02:02:44;;;;;;;3.85;2.80;;;19.20;58.60;;;;;;5016548;28;20033;-57
2024/03/22 02:05:15;;;;;;;2.85;2.55;;;19.20;58.50;;;;;;5014895;28;20036;-54
2024/03/22 02:07:40;;;;;;;3.65;2.45;;;19.20;58.50;;;;;;5018518;28;20116;-55
2024/03/22 02:10:07;;;;;;;2.50;2.30;;;19.20;58.50;;;;;;5020430;28;20152;-56
2024/03/22 02:12:33;;;;;;;2.92;2.63;;;19.20;58.40;;;;;;5012869;28;20038;-57
2024/03/22 02:14:59;;;;;;;2.65;2.17;;;19.20;58.40;;;;;;5019520;28;20439;-56
2024/03/22 02:17:25;;;;;;;2.70;2.15;;;19.30;58.50;;;;;;5017235;28;20100;-55
2024/03/22 02:19:50;;;;;;;3.05;2.30;;;19.20;58.40;;;;;;5017781;28;20402;-56
2024/03/22 02:22:16;;;;;;;3.13;2.40;;;19.30;58.40;;;;;;5019106;28;20083;-55
2024/03/22 02:24:41;;;;;;;2.53;2.08;;;19.20;58.40;;;;;;5018747;28;20457;-55
2024/03/22 02:27:07;;;;;;;2.30;2.10;;;19.20;58.40;;;;;;5016391;28;20037;-55
2024/03/22 02:29:32;;;;;;;2.42;2.17;;;19.20;58.40;;;;;;5017649;28;20550;-55
2024/03/22 02:31:58;;;;;;;2.58;2.17;;;19.20;58.40;;;;;;5019284;28;21375;-55
2024/03/22 02:34:24;;;;;;;2.10;1.90;;;19.20;58.40;;;;;;4993397;28;20088;-55
2024/03/22 02:36:49;;;;;;;2.22;2.03;;;19.20;58.40;;;;;;5019056;28;20025;-55
2024/03/22 02:39:15;;;;;;;2.80;2.47;;;19.20;58.40;;;;;;5017689;28;20037;-55
2024/03/22 02:41:40;;;;;;;1.92;1.80;;;19.20;58.40;;;;;;5017869;28;20087;-55
2024/03/22 02:44:06;;;;;;;2.45;2.25;;;19.20;58.40;;;;;;5018943;28;20583;-55
2024/03/22 02:46:31;;;;;;;3.22;2.13;;;19.20;58.40;;;;;;5018066;28;20529;-55
2024/03/22 02:48:57;;;;;;;2.25;2.00;;;19.20;58.40;;;;;;5015607;28;20092;-55
2024/03/22 02:51:22;;;;;;;2.05;1.88;;;19.20;58.40;;;;;;5019337;28;20045;-56
2024/03/22 02:53:48;;;;;;;4.13;2.42;;;19.20;58.30;;;;;;5017975;28;20040;-56
2024/03/22 02:56:13;;;;;;;2.80;2.50;;;19.20;58.30;;;;;;5013911;28;20553;-58
2024/03/22 02:58:39;;;;;;;2.80;2.15;;;19.20;58.40;;;;;;5016263;28;20033;-56
2024/03/22 03:01:05;;;;;;;2.20;2.00;;;19.20;58.40;;;;;;5019640;28;20530;-55
2024/03/22 03:03:31;;;;;;;2.15;1.95;;;19.20;58.40;;;;;;4992567;28;20383;-58
2024/03/22 03:05:56;;;;;;;2.47;1.85;;;19.20;58.40;;;;;;5017751;28;20049;-56
2024/03/22 03:08:22;;;;;;;2.20;2.00;;;19.20;58.30;;;;;;5017610;28;20080;-58
2024/03/22 03:10:47;;;;;;;2.13;1.80;;;19.20;58.20;;;;;;5017884;28;20442;-55
2024/03/22 03:13:13;;;;;;;3.28;1.90;;;19.20;58.30;;;;;;5016015;28;20030;-55
2024/03/22 03:15:38;;;;;;;2.60;2.00;;;19.20;58.20;;;;;;5012811;28;20687;-55
2024/03/22 03:18:04;;;;;;;2.15;1.95;;;19.20;58.20;;;;;;5015649;28;20458;-56
2024/03/22 03:20:29;;;;;;;2.42;1.90;;;19.20;58.50;;;;;;5010411;28;20073;-56
2024/03/22 03:22:57;;;;;;;1.55;1.45;;;19.20;58.30;;;;;;5017683;28;20422;-56
2024/03/22 03:25:23;;;;;;;2.15;1.70;;;19.20;58.30;;;;;;5015485;28;20052;-54
2024/03/22 03:27:48;;;;;;;2.17;1.70;;;19.20;58.20;;;;;;4986422;28;20030;-56
2024/03/22 03:30:14;;;;;;;2.20;2.00;;;19.20;58.30;;;;;;5018375;28;20026;-56
2024/03/22 03:32:39;;;;;;;2.28;2.03;;;19.20;58.30;;;;;;5013262;28;20033;-57
2024/03/22 03:35:05;;;;;;;1.75;1.65;;;19.20;58.30;;;;;;5016160;28;20483;-57
2024/03/22 03:37:31;;;;;;;2.05;1.50;;;19.20;58.30;;;;;;5017799;28;20028;-55
2024/03/22 03:39:56;;;;;;;3.22;1.80;;;19.20;58.30;;;;;;5017774;28;20033;-57
2024/03/22 03:42:22;;;;;;;1.52;1.42;;;19.20;58.40;;;;;;5003202;28;20030;-57
2024/03/22 03:44:47;;;;;;;1.73;1.52;;;19.20;58.40;;;;;;5015024;28;20072;-55
2024/03/22 03:47:13;;;;;;;2.55;1.73;;;19.10;58.30;;;;;;5017717;28;20025;-54
2024/03/22 03:49:38;;;;;;;2.60;1.70;;;19.10;58.40;;;;;;5012447;28;20030;-56
2024/03/22 03:52:04;;;;;;;1.88;1.60;;;19.10;58.40;;;;;;5021960;28;20399;-54
2024/03/22 03:54:29;;;;;;;1.85;1.60;;;19.10;58.40;;;;;;5016029;28;20053;-55
2024/03/22 03:56:55;;;;;;;1.95;1.50;;;19.10;58.40;;;;;;5019037;28;20046;-55
2024/03/22 03:59:20;;;;;;;2.42;1.67;;;19.10;58.40;;;;;;5015333;28;20025;-56
2024/03/22 04:01:46;;;;;;;2.33;1.58;;;19.10;58.40;;;;;;5016625;28;20057;-55
2024/03/22 04:04:11;;;;;;;2.00;1.80;;;19.10;58.40;;;;;;5011672;28;20042;-57
2024/03/22 04:06:37;;;;;;;2.28;1.30;;;19.10;58.50;;;;;;5013341;28;20083;-55
2024/03/22 04:09:03;;;;;;;4.07;1.40;;;19.10;58.40;;;;;;5019155;28;20038;-58
2024/03/22 04:11:28;;;;;;;2.85;1.35;;;19.10;58.40;;;;;;5014386;28;20094;-57
2024/03/22 04:13:54;;;;;;;2.03;1.42;;;19.10;58.40;;;;;;5011407;28;20116;-56
2024/03/22 04:16:19;;;;;;;1.67;1.45;;;19.10;58.40;;;;;;5017896;28;20752;-56
2024/03/22 04:18:45;;;;;;;1.92;1.60;;;19.10;58.40;;;;;;5020988;28;20034;-56
2024/03/22 04:21:10;;;;;;;2.28;1.30;;;19.10;58.40;;;;;;5017172;28;20117;-55
2024/03/22 04:23:36;;;;;;;1.27;1.13;;;19.00;58.30;;;;;;5018636;28;20060;-57
2024/03/22 04:26:02;;;;;;;1.85;1.60;;;19.10;58.40;;;;;;5019866;28;20231;-55
2024/03/22 04:28:28;;;;;;;2.17;1.92;;;19.00;58.30;;;;;;4999096;28;20052;-54
2024/03/22 04:31:02;;;;;;;1.30;1.20;;;19.10;58.40;;;;;;5018824;28;20482;-55
2024/03/22 04:33:28;;;;;;;2.17;1.45;;;19.10;58.30;;;;;;5019132;28;20048;-56
2024/03/22 04:35:54;;;;;;;1.77;1.20;;;19.10;58.30;;;;;;5017687;28;20043;-56
2024/03/22 04:38:20;;;;;;;1.58;1.40;;;19.00;58.30;;;;;;5018339;28;20034;-57
2024/03/22 04:40:46;;;;;;;1.30;1.10;;;19.00;58.40;;;;;;5016630;28;20490;-57
2024/03/22 04:43:11;;;;;;;1.73;1.40;;;19.00;58.40;;;;;;5017959;28;20053;-58
2024/03/22 04:45:37;;;;;;;1.58;1.30;;;19.00;58.40;;;;;;5015927;28;20376;-57
2024/03/22 04:48:04;;;;;;;1.98;1.20;;;19.00;58.40;;;;;;5022862;28;20037;-58
2024/03/22 04:50:30;;;;;;;1.60;1.20;;;19.00;58.40;;;;;;5019872;28;20036;-55
2024/03/22 04:52:55;;;;;;;1.33;1.17;;;19.00;58.40;;;;;;5019028;28;20033;-58
2024/03/22 04:55:21;;;;;;;1.40;1.10;;;19.00;58.40;;;;;;5019512;28;20030;-58
2024/03/22 04:57:46;;;;;;;1.65;1.17;;;19.00;58.40;;;;;;5016398;28;20038;-56
2024/03/22 05:00:12;;;;;;;1.20;1.10;;;19.00;58.40;;;;;;5012286;28;20537;-55
2024/03/22 05:02:38;;;;;;;1.40;1.20;;;19.00;58.40;;;;;;5017100;28;20033;-55
2024/03/22 05:05:04;;;;;;;1.63;1.52;;;19.00;58.40;;;;;;5024529;28;20605;-63
2024/03/22 05:07:29;;;;;;;1.70;1.30;;;19.00;58.30;;;;;;5018614;28;20041;-57
2024/03/22 05:09:55;;;;;;;1.88;1.30;;;19.00;58.30;;;;;;5022144;28;20039;-58
2024/03/22 05:12:20;;;;;;;1.10;1.00;;;19.00;58.30;;;;;;5021154;28;20025;-56
2024/03/22 05:14:46;;;;;;;1.50;1.25;;;19.00;58.30;;;;;;5015784;28;20046;-54
2024/03/22 05:17:11;;;;;;;1.17;1.08;;;19.00;58.30;;;;;;5014653;28;20491;-53
2024/03/22 05:19:37;;;;;;;1.02;0.90;;;19.00;58.20;;;;;;5020532;28;20108;-54
2024/03/22 05:22:02;;;;;;;1.80;1.25;;;19.10;58.20;;;;;;5020559;28;20099;-55
2024/03/22 05:24:28;;;;;;;1.30;1.20;;;19.00;58.20;;;;;;5017374;28;20593;-53
2024/03/22 05:26:53;;;;;;;1.23;0.98;;;19.10;58.20;;;;;;5018017;28;20916;-56
2024/03/22 05:29:19;;;;;;;1.77;1.20;;;19.10;58.20;;;;;;5019030;28;20022;-57
2024/03/22 05:31:48;;;;;;;2.80;1.20;;;19.10;58.20;;;;;;5019650;28;20022;-56
2024/03/22 05:34:14;;;;;;;1.65;1.20;;;19.10;58.20;;;;;;5023407;28;20132;-55
2024/03/22 05:36:40;;;;;;;1.40;1.20;;;19.10;58.20;;;;;;5019142;28;20113;-55
2024/03/22 05:39:06;;;;;;;1.48;1.30;;;19.10;58.20;;;;;;5018337;28;20041;-56
2024/03/22 05:41:31;;;;;;;1.40;1.00;;;19.10;58.30;;;;;;5005950;28;20503;-57
2024/03/22 05:43:57;;;;;;;3.10;1.42;;;19.00;58.30;;;;;;5016737;28;20038;-55
2024/03/22 05:46:22;;;;;;;2.53;1.20;;;19.00;58.30;;;;;;5020099;28;20047;-54
2024/03/22 05:48:49;;;;;;;2.65;1.60;;;19.00;58.40;;;;;;5019409;28;20634;-55
2024/03/22 05:51:15;;;;;;;1.63;1.30;;;19.00;58.40;;;;;;5018515;28;20060;-56
2024/03/22 05:53:41;;;;;;;2.47;1.40;;;19.00;58.40;;;;;;5021251;28;20108;-55
2024/03/22 05:56:06;;;;;;;3.10;1.52;;;19.00;58.40;;;;;;5020965;28;20033;-52
2024/03/22 05:58:32;;;;;;;2.45;1.00;;;19.30;59.30;;;;;;5014485;28;20041;-56
2024/03/22 06:00:58;;;;;;;5.60;1.63;;;19.30;58.50;;;;;;5017761;28;20033;-52
2024/03/22 06:03:23;;;;;;;6.25;1.50;;;19.40;58.70;;;;;;5016117;28;20572;-52
2024/03/22 06:05:49;;;;;;;3.30;1.40;;;19.40;58.30;;;;;;5017581;28;20037;-53
2024/03/22 06:08:18;;;;;;;4.10;1.17;;;19.30;58.50;;;;;;5016563;28;20036;-54
2024/03/22 06:10:45;;;;;;;1.95;1.30;;;19.20;59.20;;;;;;5019052;28;20091;-53
2024/03/22 06:13:10;;;;;;;2.35;1.15;;;19.20;58.70;;;;;;5014389;28;20037;-53
2024/03/22 06:15:36;;;;;;;2.55;1.13;;;19.20;58.80;;;;;;5015850;28;20033;-52
2024/03/22 06:18:01;;;;;;;7.88;2.30;;;19.20;58.70;;;;;;5017193;28;20037;-53
2024/03/22 06:20:27;;;;;;;4.55;2.97;;;19.10;58.70;;;;;;5021951;28;20040;-51
2024/03/22 06:22:52;;;;;;;6.65;3.00;;;19.10;58.80;;;;;;5017686;28;20113;-52
2024/03/22 06:25:18;;;;;;;7.30;3.58;;;19.10;58.70;;;;;;4987857;28;20105;-53
2024/03/22 06:27:43;;;;;;;7.38;3.88;;;19.10;58.70;;;;;;4991075;28;20045;-54
2024/03/22 06:30:09;;;;;;;11.32;5.07;;;19.10;58.70;;;;;;5020179;28;20033;-52
2024/03/22 06:32:35;;;;;;;12.68;5.03;;;19.10;58.80;;;;;;5015594;28;20041;-54
2024/03/22 06:35:00;;;;;;;10.38;5.22;;;19.10;58.80;;;;;;5003980;28;20694;-51
2024/03/22 06:37:26;;;;;;;11.27;6.10;;;19.10;58.90;;;;;;5019994;28;20121;-51
2024/03/22 06:39:51;;;;;;;12.35;6.72;;;19.10;58.80;;;;;;5018611;28;20075;-53
2024/03/22 06:42:17;;;;;;;13.13;5.95;;;19.10;58.80;;;;;;5018097;28;20065;-51
2024/03/22 06:44:42;;;;;;;12.32;5.53;;;19.10;58.80;;;;;;5010491;28;20434;-51
2024/03/22 06:47:08;;;;;;;14.52;6.45;;;19.10;58.80;;;;;;5020718;28;20033;-52
2024/03/22 06:49:33;;;;;;;12.68;6.65;;;19.10;58.80;;;;;;5016536;28;20021;-52
2024/03/22 06:51:59;;;;;;;10.30;6.03;;;19.10;58.80;;;;;;5019698;28;20975;-53
2024/03/22 06:54:25;;;;;;;15.98;7.32;;;19.10;58.80;;;;;;5018396;28;20034;-52
2024/03/22 06:56:51;;;;;;;12.73;6.63;;;19.10;58.90;;;;;;5016698;28;20475;-53
2024/03/22 06:59:17;;;;;;;14.55;7.50;;;19.10;58.80;;;;;;5003797;28;20060;-52
2024/03/22 07:01:42;;;;;;;17.20;8.05;;;19.10;58.80;;;;;;5016126;28;20034;-53
2024/03/22 07:04:08;;;;;;;14.10;7.35;;;19.10;58.80;;;;;;5018485;28;20140;-52
2024/03/22 07:06:34;;;;;;;14.38;7.53;;;19.10;58.80;;;;;;5018412;28;20633;-53
2024/03/22 07:08:59;;;;;;;14.95;9.07;;;19.10;58.70;;;;;;5015000;28;20127;-55
2024/03/22 07:11:24;;;;;;;18.58;9.38;;;19.10;58.70;;;;;;5017984;28;20034;-54
2024/03/22 07:13:50;;;;;;;17.80;8.88;;;19.10;58.70;;;;;;5014007;28;20488;-52
2024/03/22 07:16:16;;;;;;;16.45;8.68;;;19.10;58.70;;;;;;5018560;28;20037;-51
2024/03/22 07:18:41;;;;;;;18.80;8.77;;;19.10;58.80;;;;;;5017499;28;20403;-52
2024/03/22 07:21:07;;;;;;;17.35;8.55;;;19.10;58.90;;;;;;5020659;28;20382;-53
2024/03/22 07:23:32;;;;;;;18.80;9.68;;;19.00;58.90;;;;;;5019535;28;20125;-51
2024/03/22 07:25:59;;;;;;;17.00;9.40;;;19.10;58.90;;;;;;5015537;28;20034;-53
2024/03/22 07:28:25;;;;;;;16.95;8.30;;;19.00;59.00;;;;;;5019415;28;20171;-53
2024/03/22 07:30:50;;;;;;;17.63;8.23;;;19.00;58.90;;;;;;5019944;28;20550;-53
2024/03/22 07:33:17;;;;;;;17.85;8.65;;;19.00;58.90;;;;;;5019932;28;20112;-52
2024/03/22 07:35:43;;;;;;;16.13;8.63;;;19.00;59.00;;;;;;5020064;28;20037;-52
2024/03/22 07:38:10;;;;;;;20.70;9.43;;;19.00;59.10;;;;;;5019876;28;20030;-54
2024/03/22 07:40:35;;;;;;;14.30;8.98;;;19.00;59.20;;;;;;5023887;28;20128;-51
2024/03/22 07:43:06;;;;;;;16.73;8.60;;;19.00;59.20;;;;;;5020769;28;20132;-53
2024/03/22 07:45:35;;;;;;;15.82;8.15;;;19.00;59.20;;;;;;5022731;28;20029;-52
2024/03/22 07:48:00;;;;;;;14.40;8.05;;;19.00;59.20;;;;;;5024901;28;20037;-53
2024/03/22 07:50:26;;;;;;;19.58;8.63;;;19.00;59.20;;;;;;5024001;28;20555;-52
2024/03/22 07:52:51;;;;;;;16.70;9.00;;;19.00;59.10;;;;;;5021483;28;20030;-54
2024/03/22 07:55:17;;;;;;;18.13;8.40;;;19.00;59.10;;;;;;5021016;28;20025;-54
2024/03/22 07:57:42;;;;;;;17.77;8.40;;;19.00;59.10;;;;;;5023725;28;20112;-53
2024/03/22 08:00:08;;;;;;;17.42;9.05;;;19.00;59.10;;;;;;5016563;28;20041;-55
2024/03/22 08:02:34;;;;;;;19.02;9.68;;;19.00;59.00;;;;;;5022945;28;20039;-52
2024/03/22 08:05:01;;;;;;;19.60;10.07;;;19.00;59.10;;;;;;5018800;28;20108;-52
2024/03/22 08:07:27;;;;;;;20.70;10.05;;;19.00;59.00;;;;;;5026319;28;20033;-52
2024/03/22 08:09:52;;;;;;;15.95;8.73;;;19.00;59.00;;;;;;5017440;28;20390;-52
2024/03/22 08:12:19;;;;;;;21.63;10.32;;;19.00;59.00;;;;;;5025443;28;20030;-52
2024/03/22 08:14:45;;;;;;;19.55;10.93;;;19.00;59.00;;;;;;5019367;28;20041;-55
2024/03/22 08:17:10;;;;;;;17.67;10.20;;;19.00;58.90;;;;;;5002352;28;20434;-52
2024/03/22 08:19:36;;;;;;;17.92;10.25;;;19.00;58.90;;;;;;5015630;28;20112;-52
2024/03/22 08:22:02;;;;;;;21.95;10.73;;;19.00;58.90;;;;;;5014393;28;20032;-52
2024/03/22 08:24:27;;;;;;;17.60;10.15;;;19.00;58.80;;;;;;5016383;28;20108;-52
2024/03/22 08:26:53;;;;;;;21.02;10.25;;;19.10;58.90;;;;;;5012142;28;20044;-53
2024/03/22 08:29:19;;;;;;;20.35;9.93;;;19.10;58.90;;;;;;5017147;28;20053;-52
2024/03/22 08:31:44;;;;;;;18.65;10.07;;;19.10;58.80;;;;;;5018245;28;20117;-51
2024/03/22 08:34:10;;;;;;;17.45;9.57;;;19.10;58.80;;;;;;5019999;28;20045;-55
2024/03/22 08:36:36;;;;;;;20.17;9.82;;;19.10;58.80;;;;;;5023662;28;20053;-52
2024/03/22 08:39:02;;;;;;;18.88;10.48;;;19.10;58.80;;;;;;5018108;28;20029;-52
2024/03/22 08:41:27;;;;;;;23.60;10.35;;;19.10;58.70;;;;;;5019486;28;20052;-53
2024/03/22 08:43:53;;;;;;;18.85;10.27;;;19.10;58.70;;;;;;5017118;28;20041;-52
2024/03/22 08:46:19;;;;;;;22.45;10.05;;;19.10;58.80;;;;;;5013135;28;20030;-52
2024/03/22 08:48:44;;;;;;;20.67;11.02;;;19.10;58.80;;;;;;5018266;28;20495;-52
2024/03/22 08:51:10;;;;;;;18.73;10.63;;;19.10;58.80;;;;;;5011014;28;20053;-55
2024/03/22 08:53:35;;;;;;;17.38;9.85;;;19.10;58.80;;;;;;5021007;28;20488;-51
2024/03/22 08:56:01;;;;;;;18.88;10.40;;;19.10;58.90;;;;;;5001851;28;20030;-53
2024/03/22 08:58:26;;;;;;;17.90;10.43;;;19.10;58.80;;;;;;5015896;28;20034;-53
2024/03/22 09:00:52;;;;;;;19.20;10.55;;;19.10;58.80;;;;;;5013769;28;20084;-52
2024/03/22 09:03:18;;;;;;;18.48;10.35;;;19.10;58.80;;;;;;5015347;28;20758;-51
2024/03/22 09:05:43;;;;;;;19.42;9.48;;;19.10;59.40;;;;;;5013347;28;20556;-54
2024/03/22 09:08:09;;;;;;;19.77;10.63;;;19.20;58.80;;;;;;5014983;28;20112;-54
2024/03/22 09:10:34;;;;;;;17.45;10.20;;;19.10;58.70;;;;;;5013634;28;20071;-56
2024/03/22 09:13:00;;;;;;;17.23;9.10;;;19.10;58.70;;;;;;5018145;28;20114;-51
2024/03/22 09:15:25;;;;;;;22.55;9.80;;;19.20;58.80;;;;;;5016242;28;20033;-55
2024/03/22 09:17:54;;;;;;;16.45;9.90;;;19.20;58.80;;;;;;5020131;28;20037;-55
2024/03/22 09:20:20;;;;;;;16.50;8.90;;;19.20;58.70;;;;;;5011129;28;20060;-53
2024/03/22 09:22:46;;;;;;;16.67;8.77;;;19.20;58.70;;;;;;5017698;28;20045;-50
2024/03/22 09:25:11;;;;;;;16.83;10.10;;;19.20;58.60;;;;;;5011054;28;20041;-53
2024/03/22 09:27:37;;;;;;;17.83;9.07;;;19.20;58.60;;;;;;4999433;28;20026;-52
2024/03/22 09:30:03;;;;;;;15.85;9.00;;;19.20;58.60;;;;;;4968253;28;20066;-53
2024/03/22 09:32:29;;;;;;;17.73;9.02;;;19.20;59.20;;;;;;4971014;28;20025;-51
2024/03/22 09:34:55;;;;;;;15.63;8.43;;;19.20;58.50;;;;;;4966032;28;20543;-51
2024/03/22 09:37:20;;;;;;;15.77;8.90;;;19.20;58.60;;;;;;4971963;28;20046;-54
2024/03/22 09:39:46;;;;;;;17.02;9.57;;;19.20;58.60;;;;;;4927650;28;1046761;-55
2024/03/22 09:42:17;;;;;;;14.68;8.10;;;19.20;58.50;;;;;;4998918;28;20847;-53
2024/03/22 09:44:51;;;;;;;17.95;8.68;;;19.30;58.60;;;;;;5017134;28;20033;-54
2024/03/22 09:47:18;;;;;;;14.50;8.60;;;19.20;58.50;;;;;;5000101;28;20038;-53
2024/03/22 09:49:48;;;;;;;13.27;7.82;;;19.30;58.60;;;;;;5019222;28;20021;-53
2024/03/22 09:52:14;;;;;;;13.40;8.13;;;19.30;58.60;;;;;;5014933;28;20092;-53
2024/03/22 09:54:44;;;;;;;14.00;8.40;;;19.30;58.50;;;;;;5017782;28;20053;-56
2024/03/22 09:57:17;;;;;;;14.13;7.72;;;19.30;58.50;;;;;;5008605;28;20026;-49
2024/03/22 09:59:44;;;;;;;13.35;7.90;;;19.30;58.50;;;;;;5019476;28;20030;-57
2024/03/22 10:02:14;;;;;;;14.57;8.45;;;19.30;58.60;;;;;;5002752;28;20463;-57
2024/03/22 10:04:41;;;;;;;15.48;8.43;;;19.20;58.60;;;;;;5018700;28;20029;-56
2024/03/22 10:07:08;;;;;;;14.15;8.82;;;19.20;58.60;;;;;;5017604;28;20653;-59
2024/03/22 10:09:34;;;;;;;15.43;8.57;;;19.20;58.70;;;;;;5015991;28;20034;-56
2024/03/22 10:11:59;;;;;;;13.57;8.05;;;19.20;58.70;;;;;;5014995;28;20063;-56
2024/03/22 10:14:25;;;;;;;16.23;8.38;;;19.20;58.80;;;;;;4995131;28;20061;-54
2024/03/22 10:16:54;;;;;;;15.85;8.07;;;19.20;58.90;;;;;;5012308;28;20467;-54
2024/03/22 10:19:20;;;;;;;12.70;8.13;;;19.20;59.00;;;;;;5015227;28;20076;-54
2024/03/22 10:22:07;;;;;;;14.38;7.80;;;19.10;59.00;;;;;;5013656;28;20568;-61
2024/03/22 10:24:33;;;;;;;14.13;7.40;;;19.10;59.10;;;;;;5016555;28;20191;-55
2024/03/22 10:26:59;;;;;;;13.23;7.82;;;19.10;59.10;;;;;;5015860;28;20750;-52
2024/03/22 10:29:24;;;;;;;13.70;7.50;;;19.10;59.10;;;;;;5014801;28;20392;-53
2024/03/22 10:31:51;;;;;;;12.10;6.88;;;19.10;59.10;;;;;;5017473;28;20114;-55
2024/03/22 10:34:18;;;;;;;11.77;7.85;;;19.20;59.10;;;;;;5009696;28;20045;-54
2024/03/22 10:36:44;;;;;;;11.73;7.35;;;19.10;59.00;;;;;;5006950;28;20037;-53
2024/03/22 10:39:12;;;;;;;11.13;6.82;;;19.10;58.90;;;;;;5026841;22;20040;-55
2024/03/22 10:41:38;;;;;;;11.93;6.95;;;19.20;58.90;;;;;;5024471;28;20640;-50
2024/03/22 10:44:04;;;;;;;12.80;7.35;;;19.20;58.90;;;;;;5032213;28;20086;-55
2024/03/22 10:46:30;;;;;;;12.68;7.82;;;19.20;58.90;;;;;;5035144;28;20036;-51
2024/03/22 10:48:57;;;;;;;11.43;6.32;;;19.20;58.80;;;;;;5033338;28;20038;-53
2024/03/22 10:51:26;;;;;;;11.45;6.45;;;19.20;58.80;;;;;;5034150;28;20037;-51
2024/03/22 10:53:54;;;;;;;9.98;6.93;;;19.20;58.70;;;;;;5035341;28;20053;-53
2024/03/22 10:56:22;;;;;;;10.82;6.70;;;19.20;58.70;;;;;;5032248;28;20068;-52
2024/03/22 10:58:52;;;;;;;9.57;6.68;;;19.30;58.70;;;;;;5035890;28;20545;-56
2024/03/22 11:01:25;;;;;;;10.20;6.32;;;19.20;58.50;;;;;;5042424;28;20032;-59
2024/03/22 11:04:03;;;;;;;13.20;7.13;;;19.30;58.60;;;;;;5014845;28;20049;-53
2024/03/22 11:06:30;;;;;;;9.98;6.15;;;19.30;58.60;;;;;;5026071;28;20032;-51
2024/03/22 11:09:00;;;;;;;10.30;6.55;;;19.30;58.50;;;;;;5019125;28;20022;-54
2024/03/22 11:11:28;;;;;;;12.93;6.90;;;19.30;58.50;;;;;;5031125;28;20037;-54
2024/03/22 11:13:54;;;;;;;12.18;6.70;;;19.30;58.50;;;;;;5008745;28;20499;-56
2024/03/22 11:16:19;;;;;;;11.23;6.45;;;19.30;58.50;;;;;;5031340;28;20048;-56
2024/03/22 11:18:45;;;;;;;11.35;6.38;;;19.30;58.50;;;;;;5033117;28;20022;-53
2024/03/22 11:21:12;;;;;;;9.77;6.22;;;19.30;58.60;;;;;;5031804;28;20029;-59
2024/03/22 11:23:38;;;;;;;11.45;6.70;;;19.30;58.50;;;;;;5032005;28;20036;-58
2024/03/22 11:26:04;;;;;;;10.27;6.57;;;19.30;58.50;;;;;;5018007;28;20387;-50
2024/03/22 11:28:30;;;;;;;12.25;6.35;;;19.30;58.50;;;;;;5033292;28;20032;-51
2024/03/22 11:30:56;;;;;;;11.52;6.40;;;19.40;58.60;;;;;;5031150;28;20035;-50
2024/03/22 11:33:22;;;;;;;10.55;6.57;;;19.30;58.50;;;;;;5039956;28;20033;-52
2024/03/22 11:35:49;;;;;;;9.20;5.80;;;19.30;59.10;;;;;;5029851;28;20048;-54
2024/03/22 11:38:15;;;;;;;10.68;6.13;;;19.40;58.60;;;;;;5018577;28;20584;-56
2024/03/22 11:40:41;;;;;;;9.85;5.97;;;19.40;58.50;;;;;;5007735;28;20083;-54
2024/03/22 11:43:07;;;;;;;11.30;5.72;;;19.30;58.50;;;;;;4994078;28;20033;-55
2024/03/22 11:45:34;;;;;;;10.80;6.70;;;19.40;58.50;;;;;;5035697;28;20037;-55
2024/03/22 11:48:02;;;;;;;8.40;5.50;;;19.40;58.50;;;;;;5037453;28;20040;-50
2024/03/22 11:50:28;;;;;;;8.15;5.57;;;19.40;58.50;;;;;;5042261;28;20139;-56
2024/03/22 11:52:54;;;;;;;8.40;5.15;;;19.30;58.50;;;;;;5040754;28;20493;-51
2024/03/22 11:55:19;;;;;;;9.82;5.60;;;19.40;58.50;;;;;;5031676;28;20033;-52
2024/03/22 11:57:57;;;;;;;10.65;5.78;;;19.40;58.50;;;;;;5025130;28;20036;-56
2024/03/22 12:00:25;;;;;;;8.40;5.00;;;19.40;58.50;;;;;;5014334;28;20041;-52
2024/03/22 12:02:51;;;;;;;8.13;5.45;;;19.40;58.40;;;;;;5014384;28;20091;-48
2024/03/22 12:05:17;;;;;;;11.80;5.53;;;19.40;58.50;;;;;;5030328;28;20033;-51
2024/03/22 12:07:44;;;;;;;6.90;5.20;;;19.40;58.40;;;;;;5019981;28;20038;-61
2024/03/22 12:10:10;;;;;;;8.13;5.07;;;19.40;58.40;;;;;;4951290;28;20040;-56
2024/03/22 12:12:36;;;;;;;7.65;4.97;;;19.40;58.50;;;;;;5020453;28;20378;-56
2024/03/22 12:15:02;;;;;;;8.93;5.18;;;19.40;58.40;;;;;;5033237;28;20033;-55
2024/03/22 12:17:28;;;;;;;8.70;5.53;;;19.40;58.60;;;;;;5033672;28;20040;-57
2024/03/22 12:19:53;;;;;;;9.93;5.00;;;19.40;58.50;;;;;;5028581;28;20395;-53
2024/03/22 12:22:19;;;;;;;8.75;5.90;;;19.40;58.50;;;;;;5032424;28;20390;-50
2024/03/22 12:24:45;;;;;;;8.30;5.05;;;19.40;58.50;;;;;;5027468;28;20026;-50
2024/03/22 12:27:11;;;;;;;8.85;5.03;;;19.40;58.50;;;;;;5032379;28;20770;-57
2024/03/22 12:29:36;;;;;;;7.80;5.28;;;19.40;58.50;;;;;;5037599;28;20574;-56
2024/03/22 12:32:03;;;;;;;7.57;4.22;;;19.40;58.50;;;;;;5034572;28;20028;-52
2024/03/22 12:34:29;;;;;;;7.47;4.95;;;19.40;58.50;;;;;;5032902;28;20025;-54
2024/03/22 12:36:55;;;;;;;6.35;4.22;;;19.40;58.50;;;;;;5033842;28;20163;-53